WZZ2054 EPMO-LUKK
Flight info
| Callsign | WZZ2054 |
|---|---|
| Flight time | 1h 28m |
| Altitude | 35000 |
| Route | XIMBA DCT OMAVA DCT ROBTU DCT KENIN DCT SAT DCT SOMET DCT BUZZE DCT UNIRA |
| Aircraft | A21N/M-SDE1E2E3FGIJ1J4RWXY/LB1 |
Departure
| Time | 2026-05-07 17:31 |
|---|---|
| Airport | Warsaw Modlin Airport (EPMO) |
Arrival
| Time | 2026-05-07 18:59 |
|---|---|
| Airport | Chişinău International Airport (LUKK) |
| Time | Latitude | Longitude | Altitude | Speed | Heading |
|---|---|---|---|---|---|
| 2026-05-07 17:24 | 52.44765 | 20.64974 | 353 ft | 0 kts | 81° |
| 2026-05-07 17:27 | 52.44767 | 20.65001 | 356 ft | 5 kts | 81° |
| 2026-05-07 17:27 | 52.44775 | 20.65083 | 343 ft | 10 kts | 81° |
| 2026-05-07 17:28 | 52.44787 | 20.65216 | 343 ft | 14 kts | 81° |
| 2026-05-07 17:28 | 52.44803 | 20.65390 | 343 ft | 16 kts | 81° |
| 2026-05-07 17:28 | 52.44821 | 20.65584 | 349 ft | 18 kts | 82° |
| 2026-05-07 17:28 | 52.44838 | 20.65785 | 353 ft | 19 kts | 81° |
| 2026-05-07 17:29 | 52.44859 | 20.65999 | 343 ft | 13 kts | 81° |
| 2026-05-07 17:29 | 52.44900 | 20.66128 | 349 ft | 14 kts | 15° |
| 2026-05-07 17:29 | 52.44981 | 20.66096 | 352 ft | 9 kts | 340° |
| 2026-05-07 17:29 | 52.45044 | 20.66059 | 343 ft | 11 kts | 340° |
| 2026-05-07 17:30 | 52.45118 | 20.66016 | 349 ft | 12 kts | 340° |
| 2026-05-07 17:30 | 52.45191 | 20.66021 | 349 ft | 6 kts | 6° |
| 2026-05-07 17:30 | 52.45198 | 20.66000 | 344 ft | 1 kts | 260° |
| 2026-05-07 17:30 | 52.45180 | 20.65812 | 351 ft | 55 kts | 261° |
| 2026-05-07 17:31 | 52.45075 | 20.64688 | 343 ft | 145 kts | 262° |
| 2026-05-07 17:31 | 52.44884 | 20.62751 | 824 ft | 182 kts | 263° |
| 2026-05-07 17:31 | 52.44700 | 20.60691 | 2039 ft | 177 kts | 265° |
| 2026-05-07 17:31 | 52.44531 | 20.58758 | 2898 ft | 167 kts | 263° |
| 2026-05-07 17:32 | 52.44037 | 20.57090 | 3522 ft | 168 kts | 226° |
| 2026-05-07 17:32 | 52.42932 | 20.56193 | 3808 ft | 192 kts | 192° |
| 2026-05-07 17:32 | 52.41524 | 20.55947 | 4132 ft | 216 kts | 187° |
| 2026-05-07 17:32 | 52.39940 | 20.55735 | 4469 ft | 240 kts | 187° |
| 2026-05-07 17:33 | 52.38206 | 20.55517 | 4930 ft | 259 kts | 183° |
| 2026-05-07 17:33 | 52.36386 | 20.55904 | 5576 ft | 269 kts | 169° |
| 2026-05-07 17:33 | 52.34555 | 20.56641 | 6382 ft | 272 kts | 168° |
| 2026-05-07 17:33 | 52.32713 | 20.57397 | 7152 ft | 274 kts | 169° |
| 2026-05-07 17:34 | 52.30853 | 20.58146 | 7916 ft | 276 kts | 169° |
| 2026-05-07 17:34 | 52.28975 | 20.58890 | 8661 ft | 279 kts | 169° |
| 2026-05-07 17:34 | 52.27084 | 20.59634 | 9430 ft | 281 kts | 169° |
| 2026-05-07 17:34 | 52.25170 | 20.60385 | 10125 ft | 285 kts | 169° |
| 2026-05-07 17:35 | 52.23189 | 20.61158 | 10489 ft | 301 kts | 169° |
| 2026-05-07 17:35 | 52.21107 | 20.61966 | 10824 ft | 315 kts | 169° |
| 2026-05-07 17:35 | 52.18940 | 20.62803 | 11318 ft | 323 kts | 169° |
| 2026-05-07 17:35 | 52.16745 | 20.63650 | 11958 ft | 326 kts | 169° |
| 2026-05-07 17:36 | 52.14527 | 20.64509 | 12646 ft | 328 kts | 169° |
| 2026-05-07 17:36 | 52.12287 | 20.65242 | 13342 ft | 329 kts | 173° |
| 2026-05-07 17:36 | 52.10020 | 20.65806 | 14016 ft | 330 kts | 174° |
| 2026-05-07 17:36 | 52.07737 | 20.66340 | 14615 ft | 333 kts | 174° |
| 2026-05-07 17:37 | 52.05434 | 20.66874 | 15211 ft | 336 kts | 175° |
| 2026-05-07 17:37 | 52.03115 | 20.67412 | 15801 ft | 338 kts | 175° |
| 2026-05-07 17:37 | 52.00773 | 20.67955 | 16393 ft | 341 kts | 175° |
| 2026-05-07 17:37 | 51.98412 | 20.68504 | 16981 ft | 344 kts | 175° |
| 2026-05-07 17:38 | 51.96034 | 20.69057 | 17561 ft | 347 kts | 175° |
| 2026-05-07 17:38 | 51.93633 | 20.69617 | 18126 ft | 350 kts | 174° |
| 2026-05-07 17:38 | 51.91215 | 20.70182 | 18635 ft | 352 kts | 175° |
| 2026-05-07 17:38 | 51.88783 | 20.70754 | 19154 ft | 354 kts | 175° |
| 2026-05-07 17:39 | 51.86347 | 20.71332 | 19706 ft | 354 kts | 175° |
| 2026-05-07 17:39 | 51.83906 | 20.71921 | 20229 ft | 355 kts | 175° |
| 2026-05-07 17:39 | 51.81458 | 20.72522 | 20751 ft | 356 kts | 175° |
| 2026-05-07 17:39 | 51.79005 | 20.73134 | 21254 ft | 358 kts | 175° |
| 2026-05-07 17:40 | 51.76574 | 20.73750 | 21745 ft | 359 kts | 175° |
| 2026-05-07 17:40 | 51.74104 | 20.74384 | 22234 ft | 360 kts | 175° |
| 2026-05-07 17:40 | 51.71594 | 20.75038 | 22718 ft | 361 kts | 175° |
| 2026-05-07 17:40 | 51.69108 | 20.75693 | 23201 ft | 363 kts | 175° |
| 2026-05-07 17:41 | 51.66652 | 20.76508 | 23566 ft | 368 kts | 171° |
| 2026-05-07 17:41 | 51.64159 | 20.77513 | 23887 ft | 371 kts | 170° |
| 2026-05-07 17:41 | 51.61622 | 20.78555 | 24213 ft | 372 kts | 170° |
| 2026-05-07 17:41 | 51.59105 | 20.79579 | 24514 ft | 374 kts | 170° |
| 2026-05-07 17:42 | 51.56618 | 20.80583 | 24807 ft | 374 kts | 170° |
| 2026-05-07 17:42 | 51.54086 | 20.81599 | 25073 ft | 375 kts | 170° |
| 2026-05-07 17:42 | 51.51554 | 20.82612 | 25320 ft | 376 kts | 170° |
| 2026-05-07 17:42 | 51.49012 | 20.83627 | 25556 ft | 377 kts | 170° |
| 2026-05-07 17:43 | 51.46459 | 20.84644 | 25792 ft | 378 kts | 170° |
| 2026-05-07 17:43 | 51.43901 | 20.85660 | 26037 ft | 379 kts | 170° |
| 2026-05-07 17:43 | 51.41337 | 20.86679 | 26268 ft | 380 kts | 170° |
| 2026-05-07 17:43 | 51.38762 | 20.87703 | 26500 ft | 381 kts | 170° |
| 2026-05-07 17:44 | 51.36185 | 20.88728 | 26728 ft | 382 kts | 169° |
| 2026-05-07 17:44 | 51.33603 | 20.89751 | 26952 ft | 383 kts | 169° |
| 2026-05-07 17:44 | 51.31015 | 20.90776 | 27175 ft | 383 kts | 169° |
| 2026-05-07 17:44 | 51.28422 | 20.91801 | 27387 ft | 384 kts | 169° |
| 2026-05-07 17:45 | 51.25825 | 20.92826 | 27602 ft | 385 kts | 169° |
| 2026-05-07 17:45 | 51.23220 | 20.93855 | 27740 ft | 387 kts | 169° |
| 2026-05-07 17:45 | 51.20599 | 20.94888 | 27892 ft | 388 kts | 169° |
| 2026-05-07 17:45 | 51.17972 | 20.95922 | 28074 ft | 390 kts | 169° |
| 2026-05-07 17:46 | 51.15336 | 20.96959 | 28257 ft | 391 kts | 169° |
| 2026-05-07 17:46 | 51.12695 | 20.97997 | 28442 ft | 391 kts | 169° |
| 2026-05-07 17:46 | 51.10047 | 20.99034 | 28621 ft | 392 kts | 169° |
| 2026-05-07 17:46 | 51.07392 | 21.00073 | 28778 ft | 393 kts | 169° |
| 2026-05-07 17:47 | 51.04736 | 21.01113 | 28956 ft | 394 kts | 169° |
| 2026-05-07 17:47 | 51.02071 | 21.02154 | 29124 ft | 395 kts | 169° |
| 2026-05-07 17:47 | 50.99397 | 21.03197 | 29292 ft | 396 kts | 169° |
| 2026-05-07 17:47 | 50.96720 | 21.04240 | 29447 ft | 397 kts | 169° |
| 2026-05-07 17:48 | 50.94034 | 21.05288 | 29648 ft | 398 kts | 169° |
| 2026-05-07 17:48 | 50.91340 | 21.06337 | 29982 ft | 400 kts | 169° |
| 2026-05-07 17:48 | 50.88632 | 21.07390 | 30278 ft | 401 kts | 169° |
| 2026-05-07 17:48 | 50.85915 | 21.08442 | 30551 ft | 403 kts | 169° |
| 2026-05-07 17:49 | 50.83189 | 21.09496 | 30825 ft | 404 kts | 169° |
| 2026-05-07 17:49 | 50.80453 | 21.10556 | 30995 ft | 407 kts | 170° |
| 2026-05-07 17:49 | 50.77686 | 21.11625 | 31188 ft | 410 kts | 170° |
| 2026-05-07 17:49 | 50.74904 | 21.12698 | 31430 ft | 412 kts | 170° |
| 2026-05-07 17:50 | 50.72120 | 21.13772 | 31745 ft | 412 kts | 170° |
| 2026-05-07 17:50 | 50.69339 | 21.14843 | 32085 ft | 410 kts | 170° |
| 2026-05-07 17:50 | 50.66571 | 21.15908 | 32422 ft | 409 kts | 170° |
| 2026-05-07 17:50 | 50.63808 | 21.16973 | 32740 ft | 408 kts | 171° |
| 2026-05-07 17:51 | 50.61055 | 21.18029 | 33068 ft | 407 kts | 171° |
| 2026-05-07 17:51 | 50.58313 | 21.19080 | 33375 ft | 405 kts | 171° |
| 2026-05-07 17:51 | 50.55575 | 21.20129 | 33672 ft | 404 kts | 171° |
| 2026-05-07 17:51 | 50.52846 | 21.21172 | 33966 ft | 403 kts | 171° |
| 2026-05-07 17:52 | 50.50122 | 21.22211 | 34195 ft | 403 kts | 171° |
| 2026-05-07 17:52 | 50.47401 | 21.23247 | 34371 ft | 403 kts | 171° |
| 2026-05-07 17:52 | 50.44674 | 21.24286 | 34546 ft | 403 kts | 171° |
| 2026-05-07 17:52 | 50.41946 | 21.25326 | 34720 ft | 404 kts | 171° |
| 2026-05-07 17:53 | 50.39214 | 21.26364 | 34853 ft | 404 kts | 171° |
| 2026-05-07 17:53 | 50.36477 | 21.27400 | 34965 ft | 406 kts | 171° |
| 2026-05-07 17:53 | 50.30949 | 21.29493 | 34981 ft | 410 kts | 171° |
| 2026-05-07 17:54 | 50.25418 | 21.31584 | 34964 ft | 408 kts | 171° |
| 2026-05-07 17:54 | 50.19900 | 21.33670 | 34962 ft | 408 kts | 171° |
| 2026-05-07 17:55 | 50.14414 | 21.35734 | 34964 ft | 408 kts | 171° |
| 2026-05-07 17:55 | 50.08896 | 21.37802 | 34969 ft | 408 kts | 171° |
| 2026-05-07 17:56 | 50.03381 | 21.39870 | 34965 ft | 408 kts | 171° |
| 2026-05-07 17:56 | 49.97867 | 21.41926 | 34971 ft | 407 kts | 171° |
| 2026-05-07 17:57 | 49.93241 | 21.43653 | 34953 ft | 409 kts | 171° |
| 2026-05-07 17:57 | 49.86809 | 21.46042 | 34969 ft | 409 kts | 171° |
| 2026-05-07 17:58 | 49.81247 | 21.47925 | 35104 ft | 410 kts | 172° |
| 2026-05-07 17:58 | 49.78452 | 21.48810 | 35255 ft | 410 kts | 172° |
| 2026-05-07 17:58 | 49.75649 | 21.49696 | 35390 ft | 411 kts | 172° |
| 2026-05-07 17:59 | 49.72843 | 21.50584 | 35517 ft | 412 kts | 172° |
| 2026-05-07 17:59 | 49.70028 | 21.51474 | 35638 ft | 413 kts | 172° |
| 2026-05-07 17:59 | 49.67207 | 21.52367 | 35769 ft | 414 kts | 172° |
| 2026-05-07 17:59 | 49.64384 | 21.53259 | 35908 ft | 414 kts | 172° |
| 2026-05-07 18:00 | 49.61562 | 21.54151 | 36059 ft | 414 kts | 172° |
| 2026-05-07 18:00 | 49.58736 | 21.55043 | 36184 ft | 415 kts | 172° |
| 2026-05-07 18:00 | 49.55909 | 21.55933 | 36306 ft | 415 kts | 172° |
| 2026-05-07 18:00 | 49.53077 | 21.56824 | 36390 ft | 416 kts | 172° |
| 2026-05-07 18:01 | 49.47395 | 21.58608 | 36589 ft | 418 kts | 172° |
| 2026-05-07 18:01 | 49.44545 | 21.59501 | 36698 ft | 418 kts | 172° |
| 2026-05-07 18:01 | 49.41696 | 21.60393 | 36822 ft | 418 kts | 172° |
| 2026-05-07 18:02 | 49.35987 | 21.62176 | 37001 ft | 419 kts | 172° |
| 2026-05-07 18:02 | 49.33136 | 21.63067 | 36987 ft | 418 kts | 172° |
| 2026-05-07 18:03 | 49.28403 | 21.64542 | 36973 ft | 418 kts | 172° |
| 2026-05-07 18:03 | 49.22686 | 21.66321 | 36967 ft | 419 kts | 172° |
| 2026-05-07 18:04 | 49.16968 | 21.68111 | 36970 ft | 419 kts | 172° |
| 2026-05-07 18:04 | 49.11243 | 21.69903 | 36946 ft | 420 kts | 173° |
| 2026-05-07 18:05 | 49.05517 | 21.71674 | 36970 ft | 420 kts | 172° |
| 2026-05-07 18:05 | 48.99798 | 21.73435 | 36972 ft | 419 kts | 173° |
| 2026-05-07 18:06 | 48.94084 | 21.75189 | 36972 ft | 419 kts | 172° |
| 2026-05-07 18:06 | 48.88366 | 21.76947 | 36973 ft | 419 kts | 172° |
| 2026-05-07 18:07 | 48.82642 | 21.78703 | 36975 ft | 421 kts | 173° |
| 2026-05-07 18:07 | 48.76923 | 21.80447 | 36970 ft | 420 kts | 173° |
| 2026-05-07 18:08 | 48.71176 | 21.82190 | 36976 ft | 421 kts | 173° |
| 2026-05-07 18:08 | 48.65430 | 21.83933 | 36978 ft | 421 kts | 173° |
| 2026-05-07 18:09 | 48.59683 | 21.85675 | 36983 ft | 422 kts | 173° |
| 2026-05-07 18:09 | 48.53941 | 21.87413 | 36985 ft | 421 kts | 172° |
| 2026-05-07 18:10 | 48.48210 | 21.89140 | 36980 ft | 422 kts | 173° |
| 2026-05-07 18:10 | 48.42439 | 21.90862 | 36983 ft | 423 kts | 173° |
| 2026-05-07 18:11 | 48.36768 | 21.93257 | 36983 ft | 431 kts | 158° |
| 2026-05-07 18:11 | 48.34224 | 21.95707 | 36980 ft | 440 kts | 144° |
| 2026-05-07 18:11 | 48.32008 | 21.98915 | 36973 ft | 443 kts | 139° |
| 2026-05-07 18:12 | 48.27765 | 22.05655 | 36989 ft | 444 kts | 138° |
| 2026-05-07 18:12 | 48.23484 | 22.12335 | 36992 ft | 444 kts | 139° |
| 2026-05-07 18:13 | 48.19180 | 22.18967 | 36991 ft | 443 kts | 139° |
| 2026-05-07 18:13 | 48.14876 | 22.25568 | 36996 ft | 444 kts | 139° |
| 2026-05-07 18:14 | 48.10558 | 22.32178 | 36985 ft | 445 kts | 139° |
| 2026-05-07 18:14 | 48.06226 | 22.38793 | 36995 ft | 444 kts | 139° |
| 2026-05-07 18:15 | 48.01894 | 22.45393 | 36998 ft | 444 kts | 139° |
| 2026-05-07 18:15 | 47.97562 | 22.51980 | 37000 ft | 445 kts | 139° |
| 2026-05-07 18:16 | 47.93224 | 22.58550 | 36999 ft | 445 kts | 139° |
| 2026-05-07 18:16 | 47.88858 | 22.65151 | 36994 ft | 449 kts | 139° |
| 2026-05-07 18:17 | 47.84493 | 22.71749 | 37004 ft | 447 kts | 139° |
| 2026-05-07 18:17 | 47.80121 | 22.78323 | 37019 ft | 447 kts | 139° |
| 2026-05-07 18:18 | 47.75747 | 22.84895 | 37023 ft | 447 kts | 138° |
| 2026-05-07 18:18 | 47.73771 | 22.88495 | 36992 ft | 454 kts | 127° |
| 2026-05-07 18:18 | 47.72384 | 22.92684 | 37005 ft | 464 kts | 112° |
| 2026-05-07 18:19 | 47.71084 | 23.02134 | 37038 ft | 467 kts | 102° |
| 2026-05-07 18:19 | 47.69994 | 23.11646 | 37025 ft | 467 kts | 103° |
| 2026-05-07 18:20 | 47.69073 | 23.21211 | 37027 ft | 469 kts | 99° |
| 2026-05-07 18:20 | 47.68378 | 23.30843 | 36999 ft | 469 kts | 99° |
| 2026-05-07 18:21 | 47.67682 | 23.40463 | 37020 ft | 470 kts | 99° |
| 2026-05-07 18:21 | 47.66976 | 23.50071 | 37024 ft | 469 kts | 99° |
| 2026-05-07 18:22 | 47.66250 | 23.59671 | 37022 ft | 468 kts | 99° |
| 2026-05-07 18:22 | 47.65520 | 23.69269 | 37025 ft | 468 kts | 99° |
| 2026-05-07 18:23 | 47.64779 | 23.78857 | 37017 ft | 467 kts | 100° |
| 2026-05-07 18:23 | 47.63848 | 23.88404 | 37024 ft | 467 kts | 101° |
| 2026-05-07 18:24 | 47.62888 | 23.97929 | 37025 ft | 466 kts | 101° |
| 2026-05-07 18:24 | 47.61921 | 24.07427 | 37024 ft | 465 kts | 101° |
| 2026-05-07 18:25 | 47.60951 | 24.16910 | 37005 ft | 464 kts | 101° |
| 2026-05-07 18:25 | 47.59972 | 24.26360 | 37013 ft | 463 kts | 101° |
| 2026-05-07 18:26 | 47.58997 | 24.35746 | 37018 ft | 464 kts | 101° |
| 2026-05-07 18:26 | 47.57999 | 24.45244 | 37020 ft | 464 kts | 102° |
| 2026-05-07 18:27 | 47.57001 | 24.54678 | 37020 ft | 464 kts | 102° |
| 2026-05-07 18:27 | 47.55990 | 24.64134 | 37014 ft | 465 kts | 102° |
| 2026-05-07 18:28 | 47.54973 | 24.73573 | 37016 ft | 465 kts | 101° |
| 2026-05-07 18:28 | 47.53952 | 24.83008 | 37028 ft | 464 kts | 102° |
| 2026-05-07 18:29 | 47.52920 | 24.92448 | 37028 ft | 465 kts | 102° |
| 2026-05-07 18:29 | 47.51887 | 25.01822 | 37017 ft | 467 kts | 102° |
| 2026-05-07 18:30 | 47.50832 | 25.11316 | 37027 ft | 467 kts | 102° |
| 2026-05-07 18:30 | 47.49767 | 25.20795 | 37018 ft | 469 kts | 102° |
| 2026-05-07 18:31 | 47.48696 | 25.30294 | 37027 ft | 467 kts | 102° |
| 2026-05-07 18:31 | 47.47619 | 25.39771 | 37022 ft | 468 kts | 102° |
| 2026-05-07 18:32 | 47.46536 | 25.49234 | 37011 ft | 468 kts | 102° |
| 2026-05-07 18:32 | 47.45444 | 25.58712 | 37008 ft | 468 kts | 102° |
| 2026-05-07 18:33 | 47.44339 | 25.68191 | 37010 ft | 468 kts | 102° |
| 2026-05-07 18:33 | 47.43227 | 25.77670 | 37012 ft | 467 kts | 102° |
| 2026-05-07 18:34 | 47.42121 | 25.87076 | 36586 ft | 463 kts | 102° |
| 2026-05-07 18:34 | 47.41565 | 25.91757 | 36303 ft | 462 kts | 102° |
| 2026-05-07 18:34 | 47.41011 | 25.96401 | 35931 ft | 457 kts | 102° |
| 2026-05-07 18:34 | 47.40462 | 26.01008 | 35415 ft | 454 kts | 102° |
| 2026-05-07 18:35 | 47.39912 | 26.05578 | 34859 ft | 452 kts | 102° |
| 2026-05-07 18:35 | 47.39363 | 26.10133 | 34300 ft | 450 kts | 102° |
| 2026-05-07 18:35 | 47.38812 | 26.14675 | 33698 ft | 449 kts | 102° |
| 2026-05-07 18:35 | 47.38263 | 26.19204 | 33118 ft | 447 kts | 102° |
| 2026-05-07 18:36 | 47.37719 | 26.23695 | 32570 ft | 443 kts | 102° |
| 2026-05-07 18:36 | 47.37177 | 26.28151 | 32036 ft | 440 kts | 102° |
| 2026-05-07 18:36 | 47.36634 | 26.32577 | 31498 ft | 437 kts | 102° |
| 2026-05-07 18:36 | 47.36093 | 26.36981 | 30961 ft | 435 kts | 102° |
| 2026-05-07 18:37 | 47.35555 | 26.41352 | 30436 ft | 432 kts | 102° |
| 2026-05-07 18:37 | 47.35017 | 26.45698 | 29902 ft | 430 kts | 102° |
| 2026-05-07 18:37 | 47.34468 | 26.50017 | 29204 ft | 428 kts | 103° |
| 2026-05-07 18:37 | 47.33792 | 26.54291 | 28410 ft | 428 kts | 105° |
| 2026-05-07 18:38 | 47.33084 | 26.58527 | 27844 ft | 423 kts | 105° |
| 2026-05-07 18:38 | 47.32387 | 26.62704 | 27286 ft | 418 kts | 105° |
| 2026-05-07 18:38 | 47.31701 | 26.66841 | 26724 ft | 413 kts | 105° |
| 2026-05-07 18:38 | 47.31026 | 26.70928 | 26191 ft | 409 kts | 105° |
| 2026-05-07 18:39 | 47.30358 | 26.74977 | 25684 ft | 404 kts | 105° |
| 2026-05-07 18:39 | 47.29696 | 26.78974 | 25211 ft | 399 kts | 105° |
| 2026-05-07 18:39 | 47.29039 | 26.82925 | 24734 ft | 394 kts | 105° |
| 2026-05-07 18:39 | 47.28390 | 26.86823 | 24245 ft | 391 kts | 105° |
| 2026-05-07 18:40 | 47.27754 | 26.90639 | 23781 ft | 386 kts | 105° |
| 2026-05-07 18:40 | 47.27118 | 26.94456 | 23282 ft | 381 kts | 105° |
| 2026-05-07 18:40 | 47.26488 | 26.98214 | 22777 ft | 375 kts | 105° |
| 2026-05-07 18:40 | 47.25866 | 27.01909 | 22305 ft | 369 kts | 105° |
| 2026-05-07 18:41 | 47.25247 | 27.05590 | 21817 ft | 363 kts | 105° |
| 2026-05-07 18:41 | 47.24653 | 27.09116 | 21369 ft | 357 kts | 105° |
| 2026-05-07 18:41 | 47.24059 | 27.12626 | 20938 ft | 351 kts | 105° |
| 2026-05-07 18:41 | 47.23474 | 27.16086 | 20510 ft | 346 kts | 106° |
| 2026-05-07 18:42 | 47.22895 | 27.19507 | 20108 ft | 343 kts | 106° |
| 2026-05-07 18:42 | 47.22320 | 27.22891 | 19712 ft | 339 kts | 106° |
| 2026-05-07 18:42 | 47.21753 | 27.26235 | 19323 ft | 336 kts | 106° |
| 2026-05-07 18:42 | 47.21190 | 27.29552 | 18939 ft | 332 kts | 106° |
| 2026-05-07 18:43 | 47.20630 | 27.32833 | 18550 ft | 329 kts | 106° |
| 2026-05-07 18:43 | 47.20074 | 27.36081 | 18166 ft | 326 kts | 106° |
| 2026-05-07 18:43 | 47.19524 | 27.39298 | 17754 ft | 322 kts | 107° |
| 2026-05-07 18:43 | 47.18977 | 27.42479 | 17367 ft | 319 kts | 107° |
| 2026-05-07 18:44 | 47.18435 | 27.45617 | 16994 ft | 315 kts | 107° |
| 2026-05-07 18:44 | 47.17896 | 27.48725 | 16631 ft | 313 kts | 108° |
| 2026-05-07 18:44 | 47.17361 | 27.51811 | 16279 ft | 310 kts | 108° |
| 2026-05-07 18:44 | 47.16831 | 27.54869 | 15945 ft | 308 kts | 107° |
| 2026-05-07 18:45 | 47.16304 | 27.57907 | 15621 ft | 306 kts | 107° |
| 2026-05-07 18:45 | 47.15780 | 27.60929 | 15288 ft | 304 kts | 108° |
| 2026-05-07 18:45 | 47.15257 | 27.63928 | 14969 ft | 302 kts | 108° |
| 2026-05-07 18:45 | 47.14738 | 27.66912 | 14615 ft | 301 kts | 107° |
| 2026-05-07 18:46 | 47.14220 | 27.69893 | 14268 ft | 301 kts | 108° |
| 2026-05-07 18:46 | 47.13704 | 27.72867 | 13928 ft | 300 kts | 108° |
| 2026-05-07 18:46 | 47.13186 | 27.75830 | 13561 ft | 299 kts | 108° |
| 2026-05-07 18:46 | 47.12668 | 27.78779 | 13196 ft | 297 kts | 108° |
| 2026-05-07 18:47 | 47.12154 | 27.81707 | 12843 ft | 295 kts | 107° |
| 2026-05-07 18:47 | 47.11643 | 27.84614 | 12500 ft | 293 kts | 107° |
| 2026-05-07 18:47 | 47.11134 | 27.87500 | 12138 ft | 291 kts | 107° |
| 2026-05-07 18:47 | 47.10627 | 27.90367 | 11813 ft | 289 kts | 107° |
| 2026-05-07 18:48 | 47.10122 | 27.93217 | 11461 ft | 288 kts | 106° |
| 2026-05-07 18:48 | 47.09620 | 27.96050 | 11114 ft | 286 kts | 106° |
| 2026-05-07 18:48 | 47.09121 | 27.98864 | 10777 ft | 284 kts | 106° |
| 2026-05-07 18:48 | 47.08623 | 28.01664 | 10436 ft | 283 kts | 105° |
| 2026-05-07 18:49 | 47.08128 | 28.04444 | 10106 ft | 281 kts | 105° |
| 2026-05-07 18:49 | 47.07635 | 28.07209 | 9776 ft | 279 kts | 105° |
| 2026-05-07 18:49 | 47.07149 | 28.09920 | 9404 ft | 278 kts | 105° |
| 2026-05-07 18:49 | 47.06660 | 28.12652 | 9040 ft | 276 kts | 105° |
| 2026-05-07 18:50 | 47.06173 | 28.15371 | 8693 ft | 275 kts | 105° |
| 2026-05-07 18:50 | 47.05689 | 28.18073 | 8346 ft | 273 kts | 105° |
| 2026-05-07 18:50 | 47.05207 | 28.20762 | 8006 ft | 272 kts | 105° |
| 2026-05-07 18:50 | 47.04881 | 28.22566 | 7785 ft | 271 kts | 105° |
| 2026-05-07 18:51 | 47.04245 | 28.26085 | 7336 ft | 269 kts | 105° |
| 2026-05-07 18:51 | 47.03923 | 28.27874 | 7085 ft | 268 kts | 105° |
| 2026-05-07 18:51 | 47.03446 | 28.30517 | 6713 ft | 269 kts | 105° |
| 2026-05-07 18:51 | 47.02968 | 28.33161 | 6351 ft | 269 kts | 105° |
| 2026-05-07 18:52 | 47.02493 | 28.35775 | 5974 ft | 268 kts | 106° |
| 2026-05-07 18:52 | 47.01993 | 28.38404 | 5619 ft | 267 kts | 109° |
| 2026-05-07 18:52 | 47.01173 | 28.40818 | 5264 ft | 264 kts | 124° |
| 2026-05-07 18:52 | 47.00190 | 28.43074 | 4935 ft | 262 kts | 126° |
| 2026-05-07 18:53 | 46.99208 | 28.45319 | 4580 ft | 262 kts | 126° |
| 2026-05-07 18:53 | 46.98232 | 28.47568 | 4208 ft | 261 kts | 125° |
| 2026-05-07 18:53 | 46.97263 | 28.49819 | 3853 ft | 261 kts | 125° |
| 2026-05-07 18:53 | 46.96294 | 28.52081 | 3548 ft | 261 kts | 125° |
| 2026-05-07 18:54 | 46.95366 | 28.54277 | 3462 ft | 246 kts | 125° |
| 2026-05-07 18:54 | 46.94507 | 28.56349 | 3438 ft | 233 kts | 124° |
| 2026-05-07 18:54 | 46.93663 | 28.58384 | 3458 ft | 234 kts | 124° |
| 2026-05-07 18:54 | 46.92814 | 28.60418 | 3474 ft | 235 kts | 124° |
| 2026-05-07 18:55 | 46.92151 | 28.62609 | 3472 ft | 240 kts | 102° |
| 2026-05-07 18:55 | 46.92087 | 28.65045 | 3422 ft | 240 kts | 90° |
| 2026-05-07 18:55 | 46.92186 | 28.67490 | 3318 ft | 242 kts | 89° |
| 2026-05-07 18:55 | 46.92291 | 28.69885 | 3146 ft | 230 kts | 90° |
| 2026-05-07 18:56 | 46.92350 | 28.72161 | 2937 ft | 217 kts | 91° |
| 2026-05-07 18:56 | 46.92397 | 28.74319 | 2684 ft | 208 kts | 92° |
| 2026-05-07 18:56 | 46.92440 | 28.76400 | 2391 ft | 199 kts | 93° |
| 2026-05-07 18:56 | 46.92480 | 28.78351 | 2148 ft | 182 kts | 93° |
| 2026-05-07 18:57 | 46.92515 | 28.80074 | 1906 ft | 160 kts | 96° |
| 2026-05-07 18:57 | 46.92547 | 28.81594 | 1663 ft | 143 kts | 96° |
| 2026-05-07 18:57 | 46.92567 | 28.83036 | 1453 ft | 141 kts | 96° |
| 2026-05-07 18:57 | 46.92607 | 28.84466 | 1294 ft | 140 kts | 95° |
| 2026-05-07 18:58 | 46.92635 | 28.85875 | 1085 ft | 138 kts | 94° |
| 2026-05-07 18:58 | 46.92656 | 28.87272 | 937 ft | 137 kts | 92° |
| 2026-05-07 18:58 | 46.92691 | 28.88653 | 748 ft | 136 kts | 91° |
| 2026-05-07 18:58 | 46.92723 | 28.90028 | 580 ft | 135 kts | 92° |
| 2026-05-07 18:59 | 46.92747 | 28.91391 | 420 ft | 129 kts | 92° |
| 2026-05-07 18:59 | 46.92768 | 28.92486 | 415 ft | 80 kts | 89° |
| 2026-05-07 18:59 | 46.92781 | 28.93093 | 414 ft | 38 kts | 89° |
| 2026-05-07 18:59 | 46.92786 | 28.93355 | 413 ft | 14 kts | 85° |
| 2026-05-07 19:00 | 46.92866 | 28.93418 | 414 ft | 15 kts | 0° |
| 2026-05-07 19:00 | 46.92977 | 28.93415 | 411 ft | 17 kts | 0° |
| 2026-05-07 19:00 | 46.93085 | 28.93432 | 415 ft | 13 kts | 7° |
| 2026-05-07 19:00 | 46.93185 | 28.93450 | 415 ft | 15 kts | 6° |
| 2026-05-07 19:01 | 46.93243 | 28.93460 | 414 ft | 6 kts | 6° |
| 2026-05-07 19:01 | 46.93287 | 28.93467 | 414 ft | 7 kts | 6° |
| 2026-05-07 19:01 | 46.93340 | 28.93477 | 413 ft | 8 kts | 7° |
| 2026-05-07 19:01 | 46.93388 | 28.93486 | 413 ft | 6 kts | 7° |
| 2026-05-07 19:02 | 46.93415 | 28.93475 | 413 ft | 2 kts | 272° |
| 2026-05-07 19:02 | 46.93400 | 28.93468 | 410 ft | 3 kts | 165° |
| 2026-05-07 19:02 | 46.93368 | 28.93479 | 411 ft | 6 kts | 176° |
| 2026-05-07 19:02 | 46.93313 | 28.93472 | 414 ft | 10 kts | 187° |
| 2026-05-07 19:03 | 46.93236 | 28.93458 | 414 ft | 12 kts | 187° |
| 2026-05-07 19:03 | 46.93162 | 28.93453 | 416 ft | 10 kts | 149° |
| 2026-05-07 19:03 | 46.93141 | 28.93558 | 416 ft | 12 kts | 97° |
| 2026-05-07 19:03 | 46.93181 | 28.93629 | 414 ft | 7 kts | 359° |
| 2026-05-07 19:04 | 46.93200 | 28.93565 | 414 ft | 8 kts | 276° |
| 2026-05-07 19:04 | 46.93203 | 28.93539 | 414 ft | 0 kts | 276° |